createdAt,value
2022-09-23T00:02:12.795Z,1.30
2022-09-23T00:04:41.528Z,0.90
2022-09-23T00:07:11.132Z,1.00
2022-09-23T00:09:39.321Z,1.00
2022-09-23T00:12:10.079Z,1.10
2022-09-23T00:14:39.926Z,0.90
2022-09-23T00:17:08.191Z,1.17
2022-09-23T00:19:39.213Z,1.10
2022-09-23T00:22:07.924Z,1.00
2022-09-23T00:24:37.529Z,1.00
2022-09-23T00:27:06.406Z,1.13
2022-09-23T00:29:36.080Z,1.08
2022-09-23T00:32:04.740Z,0.95
2022-09-23T00:34:33.129Z,0.90
2022-09-23T00:37:01.472Z,1.10
2022-09-23T00:39:29.867Z,1.00
2022-09-23T00:41:59.469Z,0.82
2022-09-23T00:44:48.143Z,1.00
2022-09-23T00:47:25.165Z,0.80
2022-09-23T00:50:03.511Z,0.98
2022-09-23T00:52:33.365Z,0.80
2022-09-23T00:55:04.762Z,0.90
2022-09-23T00:57:37.168Z,1.30
2022-09-23T01:00:08.547Z,0.90
2022-09-23T01:02:37.716Z,0.85
2022-09-23T01:05:08.352Z,0.80
2022-09-23T01:07:36.556Z,1.02
2022-09-23T01:10:06.588Z,0.80
2022-09-23T01:13:03.336Z,1.00
2022-09-23T01:15:42.893Z,0.95
2022-09-23T01:18:23.385Z,0.95
2022-09-23T01:21:09.287Z,0.98
2022-09-23T01:24:13.606Z,0.80
2022-09-23T01:27:02.064Z,0.90
2022-09-23T01:30:16.743Z,0.85
2022-09-23T01:33:10.762Z,0.80
2022-09-23T01:36:10.054Z,1.17
2022-09-23T01:38:47.273Z,0.90
2022-09-23T01:41:49.243Z,0.88
2022-09-23T01:44:24.300Z,0.70
2022-09-23T01:46:57.595Z,0.85
2022-09-23T01:49:36.321Z,0.80
2022-09-23T01:52:14.716Z,0.73
2022-09-23T01:54:53.200Z,0.82
2022-09-23T01:57:31.861Z,0.90
2022-09-23T02:00:08.972Z,0.80
2022-09-23T02:02:42.069Z,0.93
2022-09-23T02:05:19.886Z,0.90
2022-09-23T02:07:54.352Z,0.80
2022-09-23T02:10:28.474Z,0.82
2022-09-23T02:13:05.298Z,1.00
2022-09-23T02:15:40.250Z,0.90
2022-09-23T02:18:15.225Z,1.17
2022-09-23T02:20:45.152Z,0.75
2022-09-23T02:23:18.717Z,0.90
2022-09-23T02:25:56.017Z,0.88
2022-09-23T02:28:33.062Z,1.20
2022-09-23T02:31:12.002Z,1.20
2022-09-23T02:33:47.339Z,0.90
2022-09-23T02:36:27.028Z,0.90
2022-09-23T02:38:58.697Z,0.90
2022-09-23T02:41:33.818Z,0.70
2022-09-23T02:44:08.390Z,0.82
2022-09-23T02:46:37.932Z,0.70
2022-09-23T02:49:12.579Z,0.80
2022-09-23T02:51:42.881Z,0.80
2022-09-23T02:54:15.664Z,0.90
2022-09-23T02:56:43.976Z,0.95
2022-09-23T02:59:13.626Z,0.90
2022-09-23T03:01:56.401Z,0.90
2022-09-23T03:04:34.371Z,0.80
2022-09-23T03:07:11.821Z,1.33
2022-09-23T03:09:51.094Z,0.80
2022-09-23T03:12:36.036Z,1.02
2022-09-23T03:15:22.633Z,0.98
2022-09-23T03:17:59.794Z,1.10
2022-09-23T03:20:35.368Z,0.90
2022-09-23T03:23:09.993Z,0.90
2022-09-23T03:25:44.708Z,0.80
2022-09-23T03:28:15.886Z,0.90
2022-09-23T03:30:44.623Z,0.70
2022-09-23T03:33:16.675Z,1.10
2022-09-23T03:36:11.822Z,1.10
2022-09-23T03:38:46.706Z,0.80
2022-09-23T03:41:21.162Z,0.80
2022-09-23T03:43:49.963Z,0.90
2022-09-23T03:46:19.081Z,0.82
2022-09-23T03:48:47.614Z,1.00
2022-09-23T03:51:23.873Z,0.80
2022-09-23T03:53:53.428Z,0.85
2022-09-23T03:56:21.657Z,1.05
2022-09-23T03:58:49.826Z,1.17
2022-09-23T04:01:18.103Z,0.98
2022-09-23T04:03:46.403Z,0.80
2022-09-23T04:06:14.872Z,0.85
2022-09-23T04:08:43.121Z,1.02
2022-09-23T04:11:12.706Z,0.77
2022-09-23T04:13:40.914Z,0.90
2022-09-23T04:16:09.169Z,0.98
2022-09-23T04:18:37.532Z,0.90
2022-09-23T04:21:06.098Z,1.20
2022-09-23T04:23:34.345Z,1.00
2022-09-23T04:26:02.539Z,0.85
2022-09-23T04:28:32.156Z,1.05
2022-09-23T04:31:00.561Z,0.90
2022-09-23T04:33:28.916Z,1.00
2022-09-23T04:35:57.402Z,0.88
2022-09-23T04:38:25.855Z,0.80
2022-09-23T04:40:54.223Z,0.85
2022-09-23T04:43:23.293Z,1.45
2022-09-23T04:46:01.518Z,0.95
2022-09-23T04:48:30.432Z,1.00
2022-09-23T04:51:04.659Z,0.93
2022-09-23T04:53:33.995Z,0.80
2022-09-23T04:56:03.315Z,1.00
2022-09-23T04:58:31.819Z,0.90
2022-09-23T05:01:11.197Z,0.98
2022-09-23T05:03:40.846Z,0.98
2022-09-23T05:06:09.557Z,1.02
2022-09-23T05:08:37.969Z,0.80
2022-09-23T05:11:06.988Z,0.95
2022-09-23T05:13:35.448Z,0.90
2022-09-23T05:16:08.301Z,0.80
2022-09-23T05:18:42.681Z,1.00
2022-09-23T05:21:11.978Z,1.00
2022-09-23T05:23:41.910Z,0.90
2022-09-23T05:26:13.546Z,1.10
2022-09-23T05:28:42.003Z,1.08
2022-09-23T05:31:19.642Z,1.48
2022-09-23T05:33:51.819Z,0.90
2022-09-23T05:36:21.256Z,0.80
2022-09-23T05:38:50.830Z,1.02
2022-09-23T05:41:22.955Z,0.95
2022-09-23T05:43:52.099Z,1.00
2022-09-23T05:46:24.164Z,1.00
2022-09-23T05:48:52.670Z,1.33
2022-09-23T05:51:25.460Z,1.00
2022-09-23T05:53:58.208Z,1.15
2022-09-23T05:56:29.250Z,1.05
2022-09-23T05:59:00.368Z,1.02
2022-09-23T06:01:33.982Z,1.70
2022-09-23T06:04:05.422Z,1.20
2022-09-23T06:06:37.010Z,0.90
2022-09-23T06:09:06.074Z,1.08
2022-09-23T06:11:36.530Z,1.30
2022-09-23T06:14:05.426Z,1.00
2022-09-23T06:16:36.667Z,0.80
2022-09-23T06:19:07.014Z,1.00
2022-09-23T06:21:38.716Z,0.98
2022-09-23T06:24:08.262Z,1.10
2022-09-23T06:26:37.557Z,0.90
2022-09-23T06:29:11.790Z,1.00
2022-09-23T06:31:43.316Z,0.90
2022-09-23T06:34:13.929Z,1.23
2022-09-23T06:36:44.882Z,1.13
2022-09-23T06:39:14.429Z,1.27
2022-09-23T06:41:42.631Z,1.13
2022-09-23T06:44:10.994Z,1.27
2022-09-23T06:46:40.607Z,1.10
2022-09-23T06:49:09.158Z,1.40
2022-09-23T06:51:37.353Z,1.42
2022-09-23T06:54:05.992Z,1.10
2022-09-23T06:56:38.748Z,1.30
2022-09-23T06:59:08.962Z,1.00
2022-09-23T07:01:37.265Z,1.00
2022-09-23T07:04:07.487Z,1.67
2022-09-23T07:06:36.126Z,1.00
2022-09-23T07:09:04.844Z,0.90
2022-09-23T07:11:33.020Z,1.10
2022-09-23T07:14:01.194Z,1.17
2022-09-23T07:16:29.415Z,1.00
2022-09-23T07:18:57.870Z,1.10
2022-09-23T07:21:27.923Z,1.00
2022-09-23T07:23:58.121Z,1.23
2022-09-23T07:26:26.769Z,1.00
2022-09-23T07:28:56.818Z,1.20
2022-09-23T07:31:39.154Z,1.00
2022-09-23T07:36:41.384Z,1.10
2022-09-23T07:39:12.154Z,1.25
2022-09-23T07:41:44.473Z,1.00
2022-09-23T07:44:13.475Z,1.10
2022-09-23T07:46:41.896Z,1.02
2022-09-23T07:49:10.498Z,1.10
2022-09-23T07:51:42.868Z,1.10
2022-09-23T07:54:14.907Z,1.15
2022-09-23T07:56:44.200Z,0.98
2022-09-23T07:59:18.260Z,1.27
2022-09-23T08:01:48.912Z,1.23
2022-09-23T08:04:20.189Z,1.25
2022-09-23T08:06:53.458Z,1.40
2022-09-23T08:09:25.380Z,1.35
2022-09-23T08:11:53.993Z,1.10
2022-09-23T08:14:23.328Z,1.35
2022-09-23T08:16:52.344Z,1.10
2022-09-23T08:19:21.094Z,1.25
2022-09-23T08:21:52.243Z,1.35
2022-09-23T08:24:24.244Z,1.65
2022-09-23T08:26:54.501Z,1.33
2022-09-23T08:29:25.804Z,1.30
2022-09-23T08:31:55.530Z,1.30
2022-09-23T08:34:24.731Z,1.40
2022-09-23T08:36:54.327Z,1.23
2022-09-23T08:39:23.116Z,1.17
2022-09-23T08:42:08.462Z,1.48
2022-09-23T08:44:50.654Z,1.52
2022-09-23T08:47:24.475Z,1.20
2022-09-23T08:50:01.310Z,1.58
2022-09-23T08:52:37.974Z,1.10
2022-09-23T08:55:11.597Z,1.40
2022-09-23T08:58:14.040Z,1.35
2022-09-23T09:00:47.785Z,1.20
2022-09-23T09:03:23.831Z,1.20
2022-09-23T09:05:54.770Z,1.10
2022-09-23T09:08:31.772Z,1.58
2022-09-23T09:11:00.844Z,1.45
2022-09-23T09:13:33.644Z,1.60
2022-09-23T09:16:41.871Z,1.40
2022-09-23T09:19:22.207Z,1.40
2022-09-23T09:21:55.490Z,1.20
2022-09-23T09:24:34.739Z,1.30
2022-09-23T09:27:10.163Z,1.30
2022-09-23T09:29:44.101Z,1.50
2022-09-23T09:32:23.223Z,1.48
2022-09-23T09:34:58.053Z,1.30
2022-09-23T09:37:32.933Z,1.20
2022-09-23T09:40:03.233Z,1.30
2022-09-23T09:42:40.433Z,1.70
2022-09-23T09:45:19.680Z,1.40
2022-09-23T09:47:56.644Z,1.80
2022-09-23T09:50:45.102Z,1.80
2022-09-23T09:53:25.770Z,1.45
2022-09-23T09:56:06.047Z,1.83
2022-09-23T09:58:46.996Z,1.52
2022-09-23T10:01:24.337Z,1.30
2022-09-23T10:03:56.934Z,1.30
2022-09-23T10:06:30.532Z,1.52
2022-09-23T10:09:16.957Z,1.50
2022-09-23T10:12:13.096Z,1.60
2022-09-23T10:14:41.266Z,1.60
2022-09-23T10:17:16.719Z,1.33
2022-09-23T10:19:49.376Z,1.52
2022-09-23T10:24:54.244Z,1.50
2022-09-23T10:27:31.858Z,1.40
2022-09-23T10:30:03.525Z,1.55
2022-09-23T10:32:36.413Z,1.37
2022-09-23T10:35:15.903Z,1.55
2022-09-23T10:37:48.413Z,1.17
2022-09-23T10:43:52.310Z,1.48
2022-09-23T10:46:42.263Z,1.48
2022-09-23T10:49:45.027Z,1.83
2022-09-23T10:52:32.051Z,1.40
2022-09-23T10:55:18.892Z,1.35
2022-09-23T10:58:05.058Z,1.73
2022-09-23T11:00:48.058Z,1.48
2022-09-23T11:03:57.058Z,1.48
2022-09-23T11:06:38.573Z,1.83
2022-09-23T11:09:27.232Z,1.67
2022-09-23T11:12:10.084Z,1.23
2022-09-23T11:18:01.040Z,1.50
2022-09-23T11:20:45.581Z,1.67
2022-09-23T11:23:44.958Z,1.60
2022-09-23T11:26:32.903Z,1.20
2022-09-23T11:29:36.459Z,1.30
2022-09-23T11:32:28.303Z,1.10
2022-09-23T11:35:12.794Z,1.48
2022-09-23T11:37:46.762Z,1.60
2022-09-23T11:40:21.294Z,1.40
2022-09-23T11:42:58.109Z,1.40
2022-09-23T11:45:31.382Z,1.42
2022-09-23T11:48:06.324Z,1.77
2022-09-23T11:50:41.238Z,1.60
2022-09-23T11:53:16.699Z,1.70
2022-09-23T11:55:57.369Z,1.40
2022-09-23T11:58:31.357Z,1.48
2022-09-23T12:01:07.117Z,1.23
2022-09-23T12:03:45.818Z,1.40
2022-09-23T12:06:21.010Z,1.17
2022-09-23T12:08:55.060Z,1.40
2022-09-23T12:11:31.951Z,1.58
2022-09-23T12:14:16.609Z,1.40
2022-09-23T12:17:21.305Z,1.35
2022-09-23T12:20:18.682Z,1.25
2022-09-23T12:23:04.066Z,1.40
2022-09-23T12:25:46.647Z,1.52
2022-09-23T12:30:49.128Z,1.50
2022-09-23T12:33:24.633Z,1.25
2022-09-23T12:35:55.273Z,1.00
2022-09-23T12:38:33.184Z,1.25
2022-09-23T12:41:08.317Z,1.33
2022-09-23T12:43:36.946Z,0.98
2022-09-23T12:46:25.659Z,0.90
2022-09-23T12:49:07.256Z,1.20
2022-09-23T12:51:36.930Z,1.17
2022-09-23T12:54:25.841Z,1.10
2022-09-23T12:57:10.982Z,1.00
2022-09-23T12:59:59.138Z,0.90
2022-09-23T13:02:36.706Z,1.08
2022-09-23T13:05:37.461Z,1.40
2022-09-23T13:08:10.777Z,1.02
2022-09-23T13:10:49.925Z,1.30
2022-09-23T13:13:26.935Z,1.10
2022-09-23T13:15:55.231Z,1.25
2022-09-23T13:19:00.112Z,1.10
2022-09-23T13:22:14.075Z,1.25
2022-09-23T13:24:48.263Z,1.55
2022-09-23T13:27:32.489Z,1.10
2022-09-23T13:30:04.914Z,1.33
2022-09-23T13:32:46.249Z,1.20
2022-09-23T13:35:26.094Z,0.95
2022-09-23T13:37:55.235Z,1.00
2022-09-23T13:40:27.201Z,0.98
2022-09-23T13:43:01.638Z,1.20
2022-09-23T13:45:32.146Z,0.80
2022-09-23T13:48:05.915Z,1.13
2022-09-23T13:50:35.636Z,1.00
2022-09-23T13:53:09.801Z,1.08
2022-09-23T13:55:41.313Z,1.38
2022-09-23T13:58:20.304Z,1.23
2022-09-23T14:00:49.945Z,1.20
2022-09-23T14:03:24.314Z,1.05
2022-09-23T14:05:54.024Z,1.00
2022-09-23T14:08:22.730Z,1.05
2022-09-23T14:10:51.925Z,0.90
2022-09-23T14:13:26.100Z,0.80
2022-09-23T14:15:58.376Z,0.98
2022-09-23T14:18:36.165Z,0.80
2022-09-23T14:21:05.076Z,0.98
2022-09-23T14:23:33.538Z,0.90
2022-09-23T14:26:03.602Z,0.80
2022-09-23T14:28:33.525Z,1.00
2022-09-23T14:31:03.233Z,0.80
2022-09-23T14:33:35.263Z,0.90
2022-09-23T14:36:16.917Z,0.80
2022-09-23T14:38:53.141Z,1.17
2022-09-23T14:41:25.265Z,0.90
2022-09-23T14:43:58.395Z,0.98
2022-09-23T14:46:30.410Z,1.10
2022-09-23T14:49:07.750Z,0.90
2022-09-23T14:51:50.399Z,1.20
2022-09-23T14:54:34.095Z,1.00
2022-09-23T14:57:05.944Z,0.73
2022-09-23T14:59:37.889Z,1.20
2022-09-23T15:02:35.775Z,0.80
2022-09-23T15:05:17.726Z,1.05
2022-09-23T15:07:50.824Z,0.90
2022-09-23T15:10:24.645Z,0.90
2022-09-23T15:12:55.318Z,0.98
2022-09-23T15:15:29.105Z,0.80
2022-09-23T15:18:05.054Z,1.42
2022-09-23T15:20:33.491Z,0.90
2022-09-23T15:23:02.006Z,0.90
2022-09-23T15:25:35.486Z,0.85
2022-09-23T15:28:18.956Z,1.10
2022-09-23T15:30:48.773Z,0.80
2022-09-23T15:33:17.034Z,1.00
2022-09-23T15:35:50.140Z,1.00
2022-09-23T15:38:18.621Z,1.02
2022-09-23T15:40:46.916Z,1.17
2022-09-23T15:43:20.941Z,0.90
2022-09-23T15:45:53.829Z,1.08
2022-09-23T15:48:26.913Z,1.02
2022-09-23T15:50:55.802Z,1.10
2022-09-23T15:53:27.128Z,1.13
2022-09-23T15:55:55.686Z,1.30
2022-09-23T15:58:26.036Z,1.05
2022-09-23T16:00:57.504Z,1.10
2022-09-23T16:03:28.607Z,1.25
2022-09-23T16:06:01.181Z,1.45
2022-09-23T16:08:30.065Z,1.30
2022-09-23T16:10:58.375Z,1.20
2022-09-23T16:13:26.572Z,1.30
2022-09-23T16:15:56.350Z,1.73
2022-09-23T16:18:24.617Z,2.28
2022-09-23T16:20:52.807Z,1.63
2022-09-23T16:23:34.489Z,2.15
2022-09-23T16:26:07.262Z,1.45
2022-09-23T16:28:35.708Z,1.58
2022-09-23T16:31:05.687Z,1.95
2022-09-23T16:33:33.931Z,1.40
2022-09-23T16:36:02.896Z,1.73
2022-09-23T16:38:31.700Z,1.60
2022-09-23T16:41:00.867Z,2.05
2022-09-23T16:43:31.670Z,1.80
2022-09-23T16:46:00.102Z,2.60
2022-09-23T16:48:29.681Z,1.73
2022-09-23T16:50:57.868Z,2.08
2022-09-23T16:53:29.716Z,1.80
2022-09-23T16:55:58.903Z,1.80
2022-09-23T16:58:27.105Z,1.75
2022-09-23T17:01:16.472Z,2.15
2022-09-23T17:03:47.217Z,1.67
2022-09-23T17:06:18.025Z,1.60
2022-09-23T17:08:48.324Z,1.50
2022-09-23T17:11:17.055Z,1.70
2022-09-23T17:13:46.011Z,1.48
2022-09-23T17:16:28.244Z,1.60
2022-09-23T17:18:58.311Z,1.58
2022-09-23T17:21:28.415Z,1.65
2022-09-23T17:23:58.807Z,1.70
2022-09-23T17:26:29.004Z,1.50
2022-09-23T17:28:59.417Z,1.55
2022-09-23T17:31:27.979Z,1.58
2022-09-23T17:33:57.646Z,1.58
2022-09-23T17:36:28.017Z,1.63
2022-09-23T17:38:56.794Z,1.52
2022-09-23T17:41:25.239Z,1.50
2022-09-23T17:43:58.492Z,1.80
2022-09-23T17:46:28.902Z,1.83
2022-09-23T17:48:59.383Z,1.90
2022-09-23T17:51:27.827Z,2.00
2022-09-23T17:53:55.989Z,1.75
2022-09-23T17:56:26.284Z,1.38
2022-09-23T17:58:55.322Z,1.58
2022-09-23T18:01:25.562Z,1.52
2022-09-23T18:03:55.936Z,1.90
2022-09-23T18:06:31.543Z,1.83
2022-09-23T18:09:03.856Z,1.70
2022-09-23T18:11:35.215Z,1.92
2022-09-23T18:14:06.645Z,1.95
2022-09-23T18:16:38.223Z,1.70
2022-09-23T18:19:08.704Z,1.77
2022-09-23T18:21:41.116Z,2.10
2022-09-23T18:26:59.738Z,2.08
2022-09-23T18:29:28.110Z,2.00
2022-09-23T18:31:56.732Z,2.25
2022-09-23T18:34:25.301Z,3.25
2022-09-23T18:36:56.160Z,3.50
2022-09-23T18:39:24.463Z,2.85
2022-09-23T18:41:52.664Z,2.60
2022-09-23T18:44:20.886Z,2.28
2022-09-23T18:46:49.087Z,3.47
2022-09-23T18:49:34.550Z,3.00
2022-09-23T18:52:04.274Z,2.55
2022-09-23T18:54:32.452Z,3.35
2022-09-23T18:57:01.285Z,2.85
2022-09-23T18:59:31.746Z,2.40
2022-09-23T19:02:00.197Z,2.30
2022-09-23T19:04:29.054Z,2.30
2022-09-23T19:06:57.899Z,2.28
2022-09-23T19:09:27.628Z,2.45
2022-09-23T19:11:55.787Z,2.22
2022-09-23T19:14:23.958Z,2.58
2022-09-23T19:16:52.134Z,2.38
2022-09-23T19:19:20.443Z,2.17
2022-09-23T19:21:48.611Z,2.22
2022-09-23T19:24:19.982Z,2.17
2022-09-23T19:26:50.402Z,2.20
2022-09-23T19:29:21.696Z,1.90
2022-09-23T19:31:50.967Z,2.00
2022-09-23T19:34:23.761Z,2.17
2022-09-23T19:36:52.769Z,1.90
2022-09-23T19:39:23.349Z,2.38
2022-09-23T19:41:55.832Z,2.38
2022-09-23T19:44:25.170Z,2.20
2022-09-23T19:46:56.658Z,2.13
2022-09-23T19:49:25.944Z,2.70
2022-09-23T19:51:55.803Z,2.72
2022-09-23T19:54:27.110Z,2.28
2022-09-23T19:56:56.851Z,2.38
2022-09-23T19:59:26.236Z,2.40
2022-09-23T20:01:54.800Z,2.63
2022-09-23T20:04:23.422Z,2.58
2022-09-23T20:06:51.615Z,2.50
2022-09-23T20:09:20.011Z,3.22
2022-09-23T20:11:48.255Z,5.35
2022-09-23T20:14:19.793Z,3.55
2022-09-23T20:16:48.351Z,2.88
2022-09-23T20:19:16.674Z,3.13
2022-09-23T20:21:44.874Z,3.00
2022-09-23T20:24:13.142Z,2.75
2022-09-23T20:26:58.899Z,3.05
2022-09-23T20:29:28.818Z,4.43
2022-09-23T20:31:59.196Z,2.85
2022-09-23T20:34:29.852Z,2.85
2022-09-23T20:36:59.235Z,2.97
2022-09-23T20:39:28.065Z,2.90
2022-09-23T20:41:56.310Z,2.85
2022-09-23T20:44:24.485Z,2.53
2022-09-23T20:46:54.061Z,2.70
2022-09-23T20:49:22.670Z,2.50
2022-09-23T20:51:51.450Z,2.58
2022-09-23T20:54:20.014Z,2.25
2022-09-23T20:56:48.541Z,2.65
2022-09-23T20:59:17.966Z,2.75
2022-09-23T21:01:47.606Z,2.42
2022-09-23T21:04:17.825Z,2.45
2022-09-23T21:06:46.421Z,2.80
2022-09-23T21:09:14.607Z,2.70
2022-09-23T21:11:42.986Z,2.90
2022-09-23T21:14:11.455Z,3.17
2022-09-23T21:16:39.784Z,2.60
2022-09-23T21:19:08.504Z,3.50
2022-09-23T21:21:38.101Z,3.75
2022-09-23T21:24:37.800Z,3.60
2022-09-23T21:26:55.130Z,3.20
2022-09-23T21:29:23.363Z,3.30
2022-09-23T21:31:51.542Z,3.38
2022-09-23T21:34:19.885Z,3.28
2022-09-23T21:36:49.635Z,3.20
2022-09-23T21:39:17.801Z,2.97
2022-09-23T21:41:45.992Z,3.50
2022-09-23T21:44:14.375Z,2.97
2022-09-23T21:46:42.640Z,3.05
2022-09-23T21:49:10.857Z,3.22
2022-09-23T21:51:41.641Z,3.10
2022-09-23T21:54:15.544Z,3.33
2022-09-23T21:56:45.107Z,3.10
2022-09-23T21:59:13.583Z,3.22
2022-09-23T22:01:44.936Z,3.40
2022-09-23T22:04:17.006Z,3.40
2022-09-23T22:06:46.656Z,2.95
2022-09-23T22:09:19.153Z,3.05
2022-09-23T22:12:08.982Z,3.47
2022-09-23T22:14:38.876Z,2.70
2022-09-23T22:17:10.861Z,3.00
2022-09-23T22:19:44.143Z,2.67
2022-09-23T22:22:17.640Z,3.35
2022-09-23T22:24:48.460Z,2.50
2022-09-23T22:27:19.257Z,2.65
2022-09-23T22:30:05.339Z,2.83
2022-09-23T22:32:43.362Z,3.30
2022-09-23T22:35:16.477Z,2.88
2022-09-23T22:37:45.319Z,2.53
2022-09-23T22:40:16.708Z,2.40
2022-09-23T22:42:45.801Z,2.58
2022-09-23T22:45:14.622Z,3.65
2022-09-23T22:47:45.390Z,2.70
2022-09-23T22:50:15.420Z,2.75
2022-09-23T22:52:43.797Z,3.00
2022-09-23T22:55:12.490Z,3.15
2022-09-23T22:57:42.164Z,2.85
2022-09-23T23:00:12.686Z,2.67
2022-09-23T23:02:42.341Z,2.78
2022-09-23T23:05:10.982Z,2.65
2022-09-23T23:07:39.219Z,2.67
2022-09-23T23:10:10.073Z,2.60
2022-09-23T23:12:40.134Z,3.20
2022-09-23T23:15:12.412Z,3.05
2022-09-23T23:17:43.498Z,2.55
2022-09-23T23:20:12.052Z,3.00
2022-09-23T23:22:40.257Z,2.78
2022-09-23T23:25:09.691Z,3.17
2022-09-23T23:27:37.959Z,2.83
2022-09-23T23:30:08.297Z,2.60
2022-09-23T23:32:37.869Z,2.80
2022-09-23T23:35:07.235Z,3.13
2022-09-23T23:37:35.414Z,2.92
2022-09-23T23:40:03.875Z,2.88
2022-09-23T23:42:32.867Z,2.85
2022-09-23T23:45:01.327Z,2.90
2022-09-23T23:47:29.506Z,3.20
2022-09-23T23:49:59.366Z,2.58
2022-09-23T23:52:27.546Z,3.17
2022-09-23T23:54:55.937Z,3.42
2022-09-23T23:57:24.111Z,2.97
2022-09-23T23:59:52.275Z,2.95
